Terminal Aerodrome Forecast
Issued by NWS

Home | Current Version | Previous Version | Text Only | Print | Product List | Glossary On
Versions: 1 2 3 4 5 6 7 8 9 10 11 12 13 14 15 16 17 18 19 20 21 22 23 24 25 26 27 28 29 30 31 32 33 34 35
000
FTUS41 KBOX 281457 AAB
TAFACK
TAF AMD
KACK 281457Z 2815/2912 17016G26KT P6SM SCT025 SCT070 OVC100
      TEMPO 2816/2820 BKN025 OVC100
     FM282100 21018KT 5SM BR SCT008
     FM290000 21019KT 1/4SM FG SCT001
     FM290600 24016G23KT P6SM SCT250=

USA.gov is the U.S. government's official web portal to all federal, state and local government web resources and services.